Time;durP1;ratioP1;P1;durP2;ratioP2;P2;SDS_P1;SDS_P2;PMS_P1;PMS_P2;Temp;Humidity;BMP_temperature;BMP_pressure;BME280_temperature;BME280_humidity;BME280_pressure;Samples;Min_cycle;Max_cycle;Signal;HPM_P1;HPM_P2
2023/01/31 00:01:46;;;;;;;2.90;0.50;;;;;;;3.53;67.16;97742.94;10522251;28;20090;-77
2023/01/31 00:07:07;;;;;;;2.05;0.30;;;;;;;3.55;66.46;97723.81;10537606;28;20047;-77
2023/01/31 00:12:27;;;;;;;2.50;0.60;;;;;;;3.63;66.99;97763.97;10551559;28;20031;-76
2023/01/31 00:17:48;;;;;;;1.65;0.20;;;;;;;3.45;69.74;97757.47;10537678;28;20039;-77
2023/01/31 00:23:09;;;;;;;1.67;0.30;;;;;;;3.29;70.44;97741.41;10539566;28;20039;-76
2023/01/31 00:28:30;;;;;;;3.03;0.30;;;;;;;3.09;70.30;97724.41;10539999;28;20039;-76
2023/01/31 00:33:51;;;;;;;3.80;0.40;;;;;;;2.82;70.34;97729.41;10539659;28;20040;-77
2023/01/31 00:39:12;;;;;;;2.08;0.40;;;;;;;2.56;70.93;97733.09;10539506;28;20047;-76
2023/01/31 00:44:37;;;;;;;1.98;0.30;;;;;;;2.51;70.95;97734.00;10540442;28;20481;-76
2023/01/31 00:49:59;;;;;;;1.75;0.30;;;;;;;2.67;71.44;97739.59;10539579;28;20039;-77
2023/01/31 00:55:20;;;;;;;3.22;0.30;;;;;;;2.67;71.96;97747.84;10566581;28;20040;-77
2023/01/31 01:00:41;;;;;;;2.00;0.30;;;;;;;2.64;72.06;97740.69;10539981;28;20047;-77
2023/01/31 01:06:03;;;;;;;1.98;0.20;;;;;;;2.66;72.27;97744.38;10539430;28;20134;-76
2023/01/31 01:11:26;;;;;;;1.20;0.20;;;;;;;2.53;71.58;97714.91;10538512;28;20051;-77
2023/01/31 01:16:47;;;;;;;2.85;0.35;;;;;;;2.37;72.31;97737.38;10538935;28;20054;-76
2023/01/31 01:22:08;;;;;;;4.38;0.70;;;;;;;2.32;72.56;97743.75;10552375;28;20043;-77
2023/01/31 01:27:28;;;;;;;3.65;0.50;;;;;;;2.39;73.20;97743.81;10538168;28;20366;-77
2023/01/31 01:32:50;;;;;;;5.20;0.60;;;;;;;2.58;71.94;97754.59;10538421;28;20388;-76
2023/01/31 01:38:11;;;;;;;3.53;0.20;;;;;;;2.81;72.61;97771.31;10551863;28;20052;-76
2023/01/31 01:43:51;;;;;;;2.38;0.30;;;;;;;2.95;72.12;97764.41;10552392;28;20066;-77
2023/01/31 01:49:12;;;;;;;1.95;0.30;;;;;;;3.01;72.92;97767.75;10552042;28;20050;-77
2023/01/31 01:54:38;;;;;;;2.53;0.20;;;;;;;3.00;72.60;97760.75;10565928;28;20040;-77
2023/01/31 02:00:21;;;;;;;2.05;0.30;;;;;;;2.97;72.70;97766.59;10552442;28;20404;-77
2023/01/31 02:05:48;;;;;;;4.03;0.40;;;;;;;2.98;72.97;97776.34;10543573;28;20481;-77
2023/01/31 02:11:26;;;;;;;3.13;0.30;;;;;;;3.06;72.44;97788.91;10531797;28;20043;-77
2023/01/31 02:16:50;;;;;;;2.00;0.40;;;;;;;3.14;72.18;97803.47;10546856;28;20114;-78
2023/01/31 02:22:20;;;;;;;1.67;0.30;;;;;;;3.21;71.88;97815.84;10559140;28;20044;-77
2023/01/31 02:28:21;;;;;;;2.60;0.32;;;;;;;3.17;71.24;97820.97;10572446;28;20036;-77
2023/01/31 02:33:42;;;;;;;4.18;0.50;;;;;;;3.15;72.49;97826.28;10465939;28;20059;-77
2023/01/31 02:39:24;;;;;;;2.25;0.30;;;;;;;3.04;72.37;97819.06;10572264;28;20047;-77
2023/01/31 02:45:09;;;;;;;2.88;0.63;;;;;;;3.01;72.68;97822.91;10557886;28;20039;-77
2023/01/31 02:50:30;;;;;;;1.67;0.30;;;;;;;2.97;72.88;97814.22;10556222;28;20059;-77
2023/01/31 02:56:16;;;;;;;3.05;0.40;;;;;;;2.86;72.81;97822.78;10557929;28;20044;-77
2023/01/31 03:01:40;;;;;;;2.75;0.30;;;;;;;2.71;72.70;97831.69;10560041;28;20089;-77
2023/01/31 03:07:07;;;;;;;2.92;0.30;;;;;;;2.65;72.72;97846.88;10542964;28;20500;-77
2023/01/31 03:12:50;;;;;;;2.28;0.30;;;;;;;2.59;72.46;97861.53;10543596;28;20042;-77
2023/01/31 03:18:12;;;;;;;2.20;0.28;;;;;;;2.76;72.69;97863.88;10543455;28;20400;-76
2023/01/31 03:23:34;;;;;;;1.90;0.20;;;;;;;2.89;72.55;97882.34;10548002;28;20051;-77
2023/01/31 03:28:57;;;;;;;1.15;0.20;;;;;;;2.90;72.90;97880.38;10543967;28;20044;-77
2023/01/31 03:34:18;;;;;;;2.83;0.82;;;;;;;2.89;72.50;97885.13;10542556;28;20039;-77
2023/01/31 03:39:44;;;;;;;1.92;0.30;;;;;;;2.96;72.64;97905.78;10541752;28;20047;-77
2023/01/31 03:45:53;;;;;;;2.83;0.60;;;;;;;2.97;72.47;97918.28;10570162;28;20043;-77
2023/01/31 03:51:18;;;;;;;8.13;0.40;;;;;;;2.88;73.93;97927.75;10540228;28;20055;-77
2023/01/31 03:56:46;;;;;;;2.95;0.20;;;;;;;2.65;75.03;97933.06;10527814;28;20036;-77
2023/01/31 04:02:09;;;;;;;2.17;0.22;;;;;;;2.29;76.17;97924.59;10541837;28;20692;-77
2023/01/31 04:07:30;;;;;;;1.42;0.30;;;;;;;2.01;75.88;97916.94;10554423;28;20118;-78
2023/01/31 04:12:53;;;;;;;3.03;0.32;;;;;;;1.83;77.11;97915.81;10541119;28;20043;-78
2023/01/31 04:18:14;;;;;;;3.28;0.75;;;;;;;1.76;76.64;97894.44;10541139;28;20059;-77
2023/01/31 04:23:35;;;;;;;2.55;0.47;;;;;;;1.86;77.60;97898.25;10540022;28;20040;-77
2023/01/31 04:28:56;;;;;;;1.23;0.30;;;;;;;1.97;76.80;97903.50;10524026;28;20067;-78
2023/01/31 04:34:17;;;;;;;2.58;0.22;;;;;;;2.06;76.70;97898.84;10540264;28;20062;-78
2023/01/31 04:39:38;;;;;;;3.05;0.50;;;;;;;2.07;75.93;97900.31;10540763;28;20047;-78
2023/01/31 04:44:59;;;;;;;2.33;0.30;;;;;;;2.10;75.99;97910.25;10583598;28;20047;-78
2023/01/31 04:50:20;;;;;;;3.28;0.30;;;;;;;2.21;76.17;97926.53;10540428;28;20047;-77
2023/01/31 04:55:41;;;;;;;0.60;0.20;;;;;;;2.34;76.14;97931.28;10539235;28;20043;-78
2023/01/31 05:01:02;;;;;;;1.83;0.40;;;;;;;2.38;76.39;97928.94;10538998;28;20036;-78
2023/01/31 05:06:22;;;;;;;1.77;0.20;;;;;;;2.34;76.59;97932.03;10511230;28;20103;-78
2023/01/31 05:11:44;;;;;;;3.28;0.30;;;;;;;2.33;76.90;97938.06;10525302;28;20040;-77
2023/01/31 05:17:05;;;;;;;3.15;0.30;;;;;;;2.32;76.88;97947.59;10507754;28;20485;-78
2023/01/31 05:22:26;;;;;;;1.90;0.30;;;;;;;2.38;76.28;97957.22;10524844;28;20432;-77
2023/01/31 05:27:47;;;;;;;3.65;0.50;;;;;;;2.47;76.15;97959.53;10524647;28;20067;-77
2023/01/31 05:33:08;;;;;;;4.75;0.43;;;;;;;2.52;75.52;97964.19;10510565;28;20044;-78
2023/01/31 05:38:30;;;;;;;3.80;1.00;;;;;;;2.59;74.24;97960.75;10525826;28;20040;-77
2023/01/31 05:43:51;;;;;;;2.72;0.40;;;;;;;2.66;74.26;97966.88;10532747;28;20052;-78
2023/01/31 05:49:12;;;;;;;3.83;0.50;;;;;;;2.72;73.60;97978.53;10504156;28;20063;-78
2023/01/31 05:54:33;;;;;;;2.55;0.38;;;;;;;2.81;73.99;97972.56;10538973;28;20040;-78
2023/01/31 05:59:54;;;;;;;4.03;0.43;;;;;;;2.82;72.90;97969.25;10510926;28;20048;-78
2023/01/31 06:05:16;;;;;;;3.03;0.47;;;;;;;2.89;73.33;97976.09;10552593;28;20056;-77
2023/01/31 06:10:37;;;;;;;2.88;0.50;;;;;;;2.86;73.92;97982.69;10523468;28;20040;-78
2023/01/31 06:15:59;;;;;;;4.95;0.60;;;;;;;2.81;73.16;97989.09;10535053;28;20040;-78
2023/01/31 06:21:20;;;;;;;3.63;0.55;;;;;;;2.81;72.64;97989.09;10541768;28;20044;-78
2023/01/31 06:26:41;;;;;;;6.13;0.75;;;;;;;2.84;72.78;97997.03;10538344;28;20040;-78
2023/01/31 06:32:03;;;;;;;6.47;0.80;;;;;;;2.87;72.37;98001.47;10523667;28;20047;-78
2023/01/31 06:37:24;;;;;;;3.15;0.98;;;;;;;2.88;71.74;98010.47;10535617;28;20036;-77
2023/01/31 06:42:45;;;;;;;5.55;0.93;;;;;;;2.94;71.80;98011.09;10534973;28;20047;-78
2023/01/31 06:48:06;;;;;;;5.32;0.90;;;;;;;2.97;72.06;98031.34;10564720;28;20048;-77
2023/01/31 06:53:27;;;;;;;4.00;0.73;;;;;;;2.97;72.07;98032.06;10536418;28;20443;-77
2023/01/31 06:58:48;;;;;;;3.38;0.82;;;;;;;2.96;72.19;98033.34;10551325;28;20295;-77
2023/01/31 07:04:09;;;;;;;10.70;1.05;;;;;;;3.02;72.09;98036.00;10537126;28;20389;-78
2023/01/31 07:09:29;;;;;;;5.82;0.80;;;;;;;3.06;72.57;98045.41;10501102;28;20105;-77
2023/01/31 07:14:50;;;;;;;3.47;0.60;;;;;;;3.00;73.68;98047.56;10501114;28;20040;-77
2023/01/31 07:20:12;;;;;;;3.42;0.63;;;;;;;2.95;73.81;98055.97;10501406;28;20043;-77
2023/01/31 07:25:33;;;;;;;3.63;0.90;;;;;;;2.97;73.92;98062.41;10503989;28;20047;-79
2023/01/31 07:30:54;;;;;;;4.72;1.08;;;;;;;3.07;73.97;98070.97;10554505;28;20039;-78
2023/01/31 07:36:18;;;;;;;7.65;0.85;;;;;;;3.11;73.06;98085.19;10558747;28;20051;-80
2023/01/31 07:41:39;;;;;;;2.38;0.85;;;;;;;3.23;73.09;98080.88;10530640;28;20043;-77
2023/01/31 07:47:01;;;;;;;6.90;1.08;;;;;;;3.33;72.50;98090.19;10541782;28;20043;-78
2023/01/31 07:52:22;;;;;;;4.10;0.60;;;;;;;3.35;72.27;98081.34;10542260;28;20046;-78
2023/01/31 07:57:43;;;;;;;5.28;1.17;;;;;;;3.40;71.96;98091.53;10541300;28;20047;-78
2023/01/31 08:08:43;;;;;;;6.45;1.90;;;;;;;3.42;71.40;98081.44;10560361;28;20036;-78
2023/01/31 08:14:07;;;;;;;5.35;1.75;;;;;;;3.48;71.24;98086.84;10551330;28;20402;-76
2023/01/31 08:19:29;;;;;;;5.13;1.67;;;;;;;3.56;70.99;98093.13;10541204;28;20120;-78
2023/01/31 08:24:50;;;;;;;5.95;1.13;;;;;;;3.58;70.40;98090.59;10541040;28;20273;-78
2023/01/31 08:30:11;;;;;;;4.47;1.10;;;;;;;3.81;70.76;98090.03;10556629;28;20040;-79
2023/01/31 08:35:32;;;;;;;4.63;0.77;;;;;;;4.05;69.83;98078.59;10526299;28;20039;-79
2023/01/31 08:40:53;;;;;;;4.20;1.00;;;;;;;4.13;68.65;98087.69;10540352;28;20040;-78
2023/01/31 08:46:14;;;;;;;7.68;1.00;;;;;;;4.06;67.31;98101.47;10534166;28;20036;-79
2023/01/31 08:51:35;;;;;;;5.38;1.00;;;;;;;3.99;67.90;98097.34;10566292;28;20055;-78
2023/01/31 08:56:56;;;;;;;6.70;1.02;;;;;;;4.09;66.97;98103.88;10569768;28;20044;-78
2023/01/31 09:02:17;;;;;;;6.35;1.50;;;;;;;4.50;67.05;98113.31;10535382;28;20036;-79
2023/01/31 09:07:39;;;;;;;6.72;1.67;;;;;;;4.59;67.50;98112.81;10526086;28;20060;-78
2023/01/31 09:13:00;;;;;;;4.15;0.95;;;;;;;4.68;66.28;98115.06;10510634;28;20085;-79
2023/01/31 09:18:21;;;;;;;7.07;1.20;;;;;;;4.72;65.12;98115.44;10511261;28;20044;-78
2023/01/31 09:23:42;;;;;;;5.72;1.40;;;;;;;5.60;65.40;98095.97;10510856;28;20043;-78
2023/01/31 09:29:03;;;;;;;4.93;1.05;;;;;;;7.16;61.71;98100.81;10510959;28;20439;-78
2023/01/31 09:34:24;;;;;;;3.75;0.90;;;;;;;8.17;59.14;98105.81;10525073;28;20493;-79
2023/01/31 09:39:45;;;;;;;3.92;0.80;;;;;;;8.24;59.19;98105.00;10495471;28;20040;-78
2023/01/31 09:45:12;;;;;;;6.13;0.90;;;;;;;7.72;56.95;98104.91;10529783;28;20044;-78
2023/01/31 09:50:39;;;;;;;5.88;0.80;;;;;;;7.24;56.73;98103.53;10490180;28;20031;-77
2023/01/31 09:56:13;;;;;;;2.90;0.57;;;;;;;6.87;57.88;98105.94;10552807;28;20040;-78
2023/01/31 10:01:38;;;;;;;6.35;0.85;;;;;;;6.49;57.26;98100.53;10538176;28;20089;-77
2023/01/31 10:07:11;;;;;;;6.25;1.00;;;;;;;6.18;55.53;98122.78;10565519;28;20052;-78
2023/01/31 10:12:34;;;;;;;7.22;0.73;;;;;;;6.10;56.69;98118.53;10537488;28;20443;-78
2023/01/31 10:17:58;;;;;;;6.30;0.90;;;;;;;6.27;56.41;98129.75;10552031;28;20540;-79
2023/01/31 10:23:26;;;;;;;4.65;0.70;;;;;;;6.59;55.81;98121.56;10537668;28;20368;-79
2023/01/31 10:28:51;;;;;;;4.85;1.10;;;;;;;6.89;53.86;98114.44;10545739;28;20409;-79
2023/01/31 10:34:25;;;;;;;4.85;1.08;;;;;;;7.01;54.74;98111.97;10544727;28;20093;-79
2023/01/31 10:39:49;;;;;;;4.25;0.77;;;;;;;7.07;53.20;98112.53;10544755;28;20036;-79
2023/01/31 10:45:19;;;;;;;5.93;1.10;;;;;;;6.82;53.49;98104.09;10544646;28;20047;-79
2023/01/31 10:50:46;;;;;;;5.20;1.00;;;;;;;6.59;53.34;98104.19;10558964;28;20489;-77
2023/01/31 10:56:28;;;;;;;9.27;1.30;;;;;;;6.16;53.12;98078.22;10557997;28;20040;-77
2023/01/31 11:01:49;;;;;;;5.70;0.80;;;;;;;5.97;53.31;98095.25;10555107;28;20108;-77
2023/01/31 11:07:10;;;;;;;6.38;0.85;;;;;;;5.82;53.35;98084.16;10572027;28;20121;-77
2023/01/31 11:12:53;;;;;;;6.95;0.70;;;;;;;5.80;53.66;98081.19;10557381;28;20036;-77
2023/01/31 11:18:16;;;;;;;6.20;0.90;;;;;;;5.74;53.72;98075.09;10557738;28;20047;-77
2023/01/31 11:23:37;;;;;;;4.07;1.08;;;;;;;5.65;53.11;98047.94;10535320;28;20048;-78
2023/01/31 11:28:58;;;;;;;3.58;0.80;;;;;;;5.74;53.43;98053.69;10534750;28;20452;-76
2023/01/31 11:34:24;;;;;;;4.68;0.70;;;;;;;5.72;52.74;98034.09;10541270;28;20043;-77
2023/01/31 11:40:11;;;;;;;3.53;0.77;;;;;;;5.83;53.05;98005.28;10519064;28;20051;-76
2023/01/31 11:45:33;;;;;;;5.93;0.80;;;;;;;5.92;52.52;97996.44;10537082;28;20390;-76
2023/01/31 11:50:59;;;;;;;5.63;0.88;;;;;;;5.85;52.36;97994.38;10519673;28;20036;-75
2023/01/31 11:56:22;;;;;;;4.10;1.27;;;;;;;5.74;52.67;97989.22;10540462;28;20043;-76
2023/01/31 12:01:49;;;;;;;3.40;0.70;;;;;;;5.67;53.18;97979.63;10568479;28;20036;-76
2023/01/31 12:07:41;;;;;;;5.30;0.90;;;;;;;5.58;53.06;97973.91;10554459;28;20383;-76
2023/01/31 12:13:14;;;;;;;5.93;0.88;;;;;;;5.69;53.13;97968.00;10509252;28;20048;-76
2023/01/31 12:19:04;;;;;;;3.15;0.80;;;;;;;5.70;52.92;97947.31;10525439;28;20224;-76
2023/01/31 12:24:33;;;;;;;7.43;1.17;;;;;;;5.47;53.09;97942.53;10543404;28;20093;-77
2023/01/31 12:30:10;;;;;;;6.55;1.38;;;;;;;5.47;53.59;97936.28;10531684;28;20032;-77
2023/01/31 12:35:42;;;;;;;7.82;1.52;;;;;;;5.46;53.74;97941.06;10545668;28;20093;-77
2023/01/31 12:41:22;;;;;;;5.57;1.30;;;;;;;5.46;53.92;97935.53;10528790;28;20477;-79
2023/01/31 12:47:08;;;;;;;4.90;0.93;;;;;;;5.55;54.16;97930.72;10528891;28;20040;-79
2023/01/31 12:52:51;;;;;;;6.50;1.40;;;;;;;5.59;54.38;97914.47;10543132;28;20059;-78
2023/01/31 12:58:41;;;;;;;6.85;1.30;;;;;;;5.68;54.44;97905.59;10549516;28;20035;-78
2023/01/31 13:04:20;;;;;;;6.30;1.73;;;;;;;5.52;54.58;97909.69;10521089;28;20051;-78
2023/01/31 13:09:42;;;;;;;7.28;1.35;;;;;;;5.45;55.19;97894.56;10561530;28;20481;-78
2023/01/31 13:15:16;;;;;;;5.40;1.50;;;;;;;5.39;55.23;97903.06;10562054;28;20040;-78
2023/01/31 13:20:49;;;;;;;9.18;2.33;;;;;;;5.37;55.43;97883.50;10551374;28;20040;-78
2023/01/31 13:26:17;;;;;;;6.40;1.15;;;;;;;5.52;55.55;97887.56;10562518;28;20055;-78
2023/01/31 13:31:46;;;;;;;7.68;1.50;;;;;;;5.49;55.63;97877.56;10550571;28;20043;-78
2023/01/31 13:37:10;;;;;;;8.63;1.50;;;;;;;5.34;56.16;97872.81;10521965;28;20043;-79
2023/01/31 13:42:32;;;;;;;11.45;1.70;;;;;;;5.18;56.61;97880.41;10537905;28;20035;-78
2023/01/31 13:47:57;;;;;;;8.57;2.03;;;;;;;5.09;57.09;97864.34;10534918;28;20040;-78
2023/01/31 13:53:20;;;;;;;8.57;2.40;;;;;;;5.11;57.34;97856.97;10538260;28;20046;-79
2023/01/31 13:58:42;;;;;;;8.00;1.65;;;;;;;5.21;57.28;97837.03;10514785;28;20093;-78
2023/01/31 14:04:13;;;;;;;10.43;2.17;;;;;;;5.21;57.28;97821.19;10504586;28;20076;-78
2023/01/31 14:09:50;;;;;;;10.82;1.52;;;;;;;5.03;57.51;97808.50;10546683;28;20503;-79
2023/01/31 14:15:49;;;;;;;14.25;2.95;;;;;;;4.84;58.02;97815.16;10531364;28;20044;-77
2023/01/31 14:21:29;;;;;;;10.25;2.58;;;;;;;4.69;59.67;97826.19;10518000;28;20046;-79
2023/01/31 14:26:51;;;;;;;8.57;1.80;;;;;;;4.62;61.16;97817.91;10534819;28;20110;-77
2023/01/31 14:32:14;;;;;;;7.75;2.00;;;;;;;4.66;60.95;97830.09;10536348;28;20150;-77
2023/01/31 14:37:57;;;;;;;11.18;2.05;;;;;;;4.67;62.33;97795.59;10534927;28;20039;-78
2023/01/31 14:43:25;;;;;;;8.50;1.83;;;;;;;4.68;61.81;97788.03;10572138;28;20048;-77
2023/01/31 14:49:23;;;;;;;6.20;1.65;;;;;;;4.52;62.22;97779.00;10534299;28;20150;-78
2023/01/31 14:55:06;;;;;;;12.50;2.03;;;;;;;4.38;61.96;97770.19;10563266;28;20092;-78
2023/01/31 15:00:28;;;;;;;8.80;1.70;;;;;;;4.31;62.66;97768.88;10543445;28;20043;-78
2023/01/31 15:05:51;;;;;;;5.50;1.75;;;;;;;4.25;62.31;97765.56;10529547;28;20052;-78
2023/01/31 15:11:24;;;;;;;7.93;2.13;;;;;;;4.17;62.90;97766.84;10528216;28;20036;-78
2023/01/31 15:17:13;;;;;;;6.40;1.80;;;;;;;4.11;62.83;97774.56;10541744;28;20093;-77
2023/01/31 15:22:54;;;;;;;9.75;2.47;;;;;;;4.00;63.64;97745.28;10543098;28;20156;-77
2023/01/31 15:28:17;;;;;;;7.32;1.92;;;;;;;4.00;64.01;97734.97;10528604;28;20040;-77
2023/01/31 15:33:47;;;;;;;6.05;2.40;;;;;;;4.00;64.29;97732.19;10514330;28;20040;-78
2023/01/31 15:39:26;;;;;;;8.20;1.88;;;;;;;3.87;64.77;97720.59;10515122;28;20044;-78
2023/01/31 15:44:47;;;;;;;5.50;1.80;;;;;;;3.70;65.54;97735.66;10541922;28;20048;-77
2023/01/31 15:50:13;;;;;;;6.28;1.88;;;;;;;3.73;65.69;97742.81;10527537;28;20040;-77
2023/01/31 15:55:34;;;;;;;6.32;2.10;;;;;;;3.66;66.35;97751.81;10512046;28;20051;-78
2023/01/31 16:00:57;;;;;;;7.60;2.42;;;;;;;3.62;67.06;97745.94;10513431;28;20043;-77
2023/01/31 16:06:35;;;;;;;9.32;2.30;;;;;;;3.60;68.81;97748.50;10526942;28;20052;-78
2023/01/31 16:12:00;;;;;;;7.40;2.50;;;;;;;3.62;67.73;97740.41;10540933;28;20063;-78
2023/01/31 16:17:20;;;;;;;;;;;;;;;3.53;68.22;97738.16;10513197;28;20523;-78
2023/01/31 16:22:54;;;;;;;8.15;2.40;;;;;;;3.47;69.66;97756.91;10526601;28;20392;-79
2023/01/31 16:28:15;;;;;;;10.10;2.50;;;;;;;3.42;69.49;97749.53;10512508;28;20048;-79
2023/01/31 16:33:36;;;;;;;8.73;2.72;;;;;;;3.35;69.65;97739.94;10540211;28;20044;-76
2023/01/31 16:39:02;;;;;;;8.50;2.58;;;;;;;3.33;70.15;97737.00;10526055;28;20051;-76
2023/01/31 16:44:25;;;;;;;5.78;2.25;;;;;;;3.36;69.70;97715.84;10512345;28;20044;-77
2023/01/31 16:49:48;;;;;;;7.90;2.30;;;;;;;3.38;69.94;97736.09;10512320;28;20379;-77
2023/01/31 16:55:13;;;;;;;6.25;2.30;;;;;;;3.35;70.04;97708.84;10525479;28;20508;-77
2023/01/31 17:00:35;;;;;;;7.05;2.40;;;;;;;3.39;69.86;97723.06;10511501;28;20115;-77
2023/01/31 17:05:56;;;;;;;6.57;2.40;;;;;;;3.43;69.78;97715.13;10525367;28;20058;-75
2023/01/31 17:11:17;;;;;;;6.22;2.22;;;;;;;3.42;69.49;97716.44;10511333;28;20056;-78
2023/01/31 17:16:59;;;;;;;5.07;2.33;;;;;;;3.44;69.88;97697.28;10516517;28;20040;-77
2023/01/31 17:22:26;;;;;;;5.82;2.47;;;;;;;3.43;70.19;97680.00;10525925;28;20074;-77
2023/01/31 17:27:47;;;;;;;5.57;2.25;;;;;;;3.42;69.46;97680.56;10539029;28;20056;-77
2023/01/31 17:33:11;;;;;;;7.05;3.25;;;;;;;3.33;69.59;97689.34;10510569;28;20040;-77
2023/01/31 17:38:32;;;;;;;5.97;2.37;;;;;;;3.32;69.99;97679.59;10518998;28;20367;-77
2023/01/31 17:43:53;;;;;;;5.97;2.05;;;;;;;3.37;69.96;97670.41;10532624;28;20040;-76
2023/01/31 17:49:15;;;;;;;6.28;2.25;;;;;;;3.34;70.00;97672.25;10518629;28;20051;-78
2023/01/31 17:54:37;;;;;;;3.75;2.03;;;;;;;3.40;69.63;97674.84;10533142;28;20481;-80
2023/01/31 17:59:58;;;;;;;6.07;2.17;;;;;;;3.43;69.72;97668.22;10520040;28;20048;-77
2023/01/31 18:05:20;;;;;;;4.45;1.77;;;;;;;3.42;69.03;97680.56;10545153;28;20051;-78
2023/01/31 18:11:07;;;;;;;4.45;1.67;;;;;;;3.30;69.81;97682.19;10538179;28;20036;-79
2023/01/31 18:16:28;;;;;;;5.35;1.90;;;;;;;3.32;70.17;97696.16;10559319;28;20050;-78
2023/01/31 18:21:49;;;;;;;5.07;2.15;;;;;;;3.34;70.08;97696.34;10545883;28;20039;-79
2023/01/31 18:27:15;;;;;;;5.35;2.03;;;;;;;3.37;69.64;97693.22;10546530;28;20039;-79
2023/01/31 18:32:36;;;;;;;10.68;2.38;;;;;;;3.38;69.85;97664.38;10559791;28;20100;-78
2023/01/31 18:37:58;;;;;;;4.30;1.65;;;;;;;3.38;70.14;97678.16;10546925;28;20044;-78
2023/01/31 18:43:19;;;;;;;4.03;1.90;;;;;;;3.38;70.24;97660.88;10544474;28;20044;-78
2023/01/31 18:48:40;;;;;;;5.70;1.80;;;;;;;3.34;70.71;97679.78;10530215;28;20051;-78
2023/01/31 18:54:01;;;;;;;3.80;1.48;;;;;;;3.32;70.84;97674.81;10544399;28;20052;-78
2023/01/31 18:59:22;;;;;;;4.70;1.40;;;;;;;3.39;71.09;97684.41;10543993;28;20039;-77
2023/01/31 19:04:43;;;;;;;4.93;1.73;;;;;;;3.38;70.77;97671.91;10526835;28;20142;-78
2023/01/31 19:10:05;;;;;;;3.85;1.33;;;;;;;3.30;71.30;97712.53;10557953;28;20047;-78
2023/01/31 19:15:26;;;;;;;2.85;1.40;;;;;;;3.33;71.53;97701.13;10557296;28;20040;-78
2023/01/31 19:20:47;;;;;;;3.70;1.58;;;;;;;3.35;71.23;97681.25;10542949;28;20073;-79
2023/01/31 19:26:08;;;;;;;4.60;1.30;;;;;;;3.36;71.12;97713.81;10529004;28;20044;-79
2023/01/31 19:31:30;;;;;;;3.70;1.40;;;;;;;3.40;71.50;97705.22;10556253;28;20440;-79
2023/01/31 19:36:51;;;;;;;2.83;1.63;;;;;;;3.39;71.60;97706.50;10542384;28;20047;-78
2023/01/31 19:42:12;;;;;;;3.28;1.58;;;;;;;3.37;71.38;97692.47;10542272;28;20093;-77
2023/01/31 19:47:34;;;;;;;3.80;1.50;;;;;;;3.36;71.66;97696.53;10541878;28;20046;-77
2023/01/31 19:52:55;;;;;;;3.15;1.40;;;;;;;3.21;71.80;97688.22;10520762;28;20044;-79
2023/01/31 19:58:16;;;;;;;4.63;1.67;;;;;;;3.26;72.37;97654.19;10512998;28;20071;-77
2023/01/31 20:03:38;;;;;;;2.95;1.73;;;;;;;3.17;71.77;97672.00;10513403;28;20056;-78
2023/01/31 20:09:06;;;;;;;6.13;2.50;;;;;;;2.95;73.46;97669.91;10513260;28;20047;-78
2023/01/31 20:14:28;;;;;;;5.28;2.08;;;;;;;2.99;72.56;97665.53;10499603;28;20073;-78
2023/01/31 20:19:50;;;;;;;2.78;1.30;;;;;;;2.98;72.92;97668.81;10513341;28;20162;-79
2023/01/31 20:25:11;;;;;;;4.93;1.35;;;;;;;2.89;73.48;97659.03;10526774;28;20048;-77
2023/01/31 20:30:33;;;;;;;3.90;1.23;;;;;;;2.75;73.27;97660.44;10526061;28;20043;-77
2023/01/31 20:35:54;;;;;;;3.17;1.42;;;;;;;2.64;73.67;97680.06;10525874;28;20044;-77
2023/01/31 20:41:15;;;;;;;2.60;1.48;;;;;;;2.62;74.03;97693.63;10525766;28;20040;-77
2023/01/31 20:46:37;;;;;;;2.13;1.20;;;;;;;2.87;74.13;97691.91;10509240;28;20059;-77
2023/01/31 20:51:58;;;;;;;2.45;1.30;;;;;;;3.07;73.70;97701.38;10525578;28;20497;-77
2023/01/31 20:57:19;;;;;;;2.30;1.02;;;;;;;3.26;73.26;97693.56;10523693;28;20032;-77
2023/01/31 21:02:39;;;;;;;2.45;1.20;;;;;;;3.39;72.63;97695.47;10496405;28;20409;-77
2023/01/31 21:08:01;;;;;;;5.65;1.38;;;;;;;3.48;72.67;97669.34;10522917;28;20394;-77
2023/01/31 21:13:22;;;;;;;1.95;1.00;;;;;;;3.49;72.61;97688.13;10523832;28;20172;-77
2023/01/31 21:18:43;;;;;;;2.67;1.00;;;;;;;3.60;72.65;97676.00;10524638;28;20451;-78
2023/01/31 21:24:04;;;;;;;2.45;1.30;;;;;;;3.41;72.45;97668.03;10551157;28;20104;-77
2023/01/31 21:29:25;;;;;;;2.05;0.82;;;;;;;3.35;72.66;97689.53;10536462;28;20043;-77
2023/01/31 21:34:46;;;;;;;2.10;0.90;;;;;;;3.54;72.51;97675.44;10535798;28;20054;-77
2023/01/31 21:40:08;;;;;;;3.33;0.70;;;;;;;3.66;71.94;97679.31;10553894;28;20105;-77
2023/01/31 21:45:43;;;;;;;2.33;0.85;;;;;;;3.64;72.17;97677.09;10566689;28;20039;-78
2023/01/31 21:51:55;;;;;;;2.10;1.00;;;;;;;3.63;71.87;97661.81;10559742;28;20093;-77
2023/01/31 21:57:17;;;;;;;1.63;0.77;;;;;;;3.54;71.50;97658.88;10550838;28;20385;-77
2023/01/31 22:02:38;;;;;;;2.20;1.00;;;;;;;3.57;72.07;97655.00;10552103;28;20056;-77
2023/01/31 22:08:00;;;;;;;4.10;1.40;;;;;;;3.59;71.95;97658.69;10537903;28;20044;-77
2023/01/31 22:13:21;;;;;;;4.88;1.95;;;;;;;3.65;72.28;97673.06;10537795;28;20062;-78
2023/01/31 22:18:42;;;;;;;5.00;1.73;;;;;;;3.71;71.89;97665.34;10551527;28;20047;-78
2023/01/31 22:24:05;;;;;;;4.30;1.30;;;;;;;3.79;72.05;97681.91;10544671;28;20051;-77
2023/01/31 22:29:26;;;;;;;3.13;1.27;;;;;;;3.73;72.19;97651.72;10559638;28;20477;-77
2023/01/31 22:34:46;;;;;;;1.80;0.73;;;;;;;3.64;72.40;97663.28;10555945;28;20035;-77
2023/01/31 22:40:08;;;;;;;1.58;0.80;;;;;;;3.59;72.56;97661.47;10536822;28;20046;-78
2023/01/31 22:45:29;;;;;;;1.77;0.60;;;;;;;3.63;72.93;97670.09;10553572;28;20051;-78
2023/01/31 22:50:55;;;;;;;2.60;0.80;;;;;;;3.70;72.57;97668.66;10542558;28;20036;-77
2023/01/31 22:56:28;;;;;;;2.47;0.80;;;;;;;3.74;72.51;97658.72;10554146;28;20089;-77
2023/01/31 23:01:49;;;;;;;1.17;0.50;;;;;;;3.66;72.62;97659.97;10542648;28;20080;-77
2023/01/31 23:07:10;;;;;;;1.42;0.80;;;;;;;3.47;73.37;97646.53;10557564;28;20497;-77
2023/01/31 23:12:30;;;;;;;1.40;0.50;;;;;;;3.44;73.16;97655.91;10529991;28;20043;-77
2023/01/31 23:17:51;;;;;;;1.55;0.60;;;;;;;3.55;72.78;97658.31;10543052;28;20067;-77
2023/01/31 23:23:12;;;;;;;1.42;0.70;;;;;;;3.58;73.09;97660.00;10571195;28;20070;-77
2023/01/31 23:28:33;;;;;;;1.65;0.60;;;;;;;3.53;72.98;97660.16;10556964;28;20039;-77
2023/01/31 23:33:54;;;;;;;1.27;0.50;;;;;;;3.55;72.92;97679.66;10555947;28;20067;-77
2023/01/31 23:39:15;;;;;;;1.30;0.60;;;;;;;3.51;73.04;97665.50;10570063;28;20050;-77
2023/01/31 23:44:35;;;;;;;1.65;0.50;;;;;;;3.41;73.31;97665.28;10553974;28;20476;-77
2023/01/31 23:49:56;;;;;;;0.98;0.30;;;;;;;3.48;73.24;97677.63;10541807;28;20043;-77
2023/01/31 23:55:17;;;;;;;1.90;0.60;;;;;;;3.58;72.81;97665.50;10555388;28;20039;-78
